createdAt,value
2019-05-26T00:00:30.616Z,978.66
2019-05-26T00:01:30.598Z,978.65
2019-05-26T00:02:30.559Z,978.55
2019-05-26T00:03:30.594Z,978.57
2019-05-26T00:04:30.570Z,978.62
2019-05-26T00:05:30.553Z,978.57
2019-05-26T00:06:30.613Z,978.53
2019-05-26T00:07:31.040Z,978.55
2019-05-26T00:08:30.575Z,978.49
2019-05-26T00:09:30.611Z,978.48
2019-05-26T00:10:30.568Z,978.50
2019-05-26T00:11:30.612Z,978.50
2019-05-26T00:12:30.610Z,978.47
2019-05-26T00:13:30.587Z,978.48
2019-05-26T00:14:30.613Z,978.47
2019-05-26T00:15:30.604Z,978.48
2019-05-26T00:16:30.590Z,978.51
2019-05-26T00:17:30.599Z,978.49
2019-05-26T00:18:33.237Z,978.45
2019-05-26T00:19:30.621Z,978.43
2019-05-26T00:20:30.559Z,978.51
2019-05-26T00:21:30.616Z,978.50
2019-05-26T00:22:30.580Z,978.47
2019-05-26T00:23:30.638Z,978.47
2019-05-26T00:24:30.640Z,978.42
2019-05-26T00:25:30.610Z,978.51
2019-05-26T00:26:30.583Z,978.44
2019-05-26T00:27:30.609Z,978.48
2019-05-26T00:28:30.593Z,978.41
2019-05-26T00:29:30.598Z,978.47
2019-05-26T00:30:30.634Z,978.54
2019-05-26T00:31:30.637Z,978.43
2019-05-26T00:32:30.591Z,978.40
2019-05-26T00:33:30.616Z,978.38
2019-05-26T00:34:30.592Z,978.30
2019-05-26T00:35:30.580Z,978.39
2019-05-26T00:36:30.641Z,978.42
2019-05-26T00:37:45.683Z,978.39
2019-05-26T00:38:30.591Z,978.38
2019-05-26T00:39:30.629Z,978.36
2019-05-26T00:40:30.597Z,978.35
2019-05-26T00:41:30.631Z,978.43
2019-05-26T00:42:30.651Z,978.41
2019-05-26T00:43:30.648Z,978.47
2019-05-26T00:44:30.590Z,978.39
2019-05-26T00:45:30.620Z,978.43
2019-05-26T00:46:30.609Z,978.40
2019-05-26T00:47:30.592Z,978.43
2019-05-26T00:48:30.643Z,978.38
2019-05-26T00:49:30.655Z,978.40
2019-05-26T00:50:30.582Z,978.38
2019-05-26T00:51:30.639Z,978.43
2019-05-26T00:52:30.615Z,978.38
2019-05-26T00:53:30.595Z,978.37
2019-05-26T00:54:30.668Z,978.31
2019-05-26T00:55:30.650Z,978.41
2019-05-26T00:56:30.598Z,978.30
2019-05-26T00:57:30.655Z,978.39
2019-05-26T00:58:30.622Z,978.42
2019-05-26T00:59:30.627Z,978.35
2019-05-26T01:00:30.663Z,978.37
2019-05-26T01:01:30.632Z,978.26
2019-05-26T01:02:30.596Z,978.29
2019-05-26T01:03:30.657Z,978.29
2019-05-26T01:04:30.631Z,978.30
2019-05-26T01:05:30.630Z,978.37
2019-05-26T01:06:30.659Z,978.35
2019-05-26T01:07:30.634Z,978.37
2019-05-26T01:08:30.603Z,978.33
2019-05-26T01:09:30.653Z,978.31
2019-05-26T01:10:30.641Z,978.25
2019-05-26T01:11:30.624Z,978.42
2019-05-26T01:12:30.669Z,978.41
2019-05-26T01:13:30.666Z,978.37
2019-05-26T01:14:30.611Z,978.32
2019-05-26T01:15:30.655Z,978.32
2019-05-26T01:16:30.633Z,978.27
2019-05-26T01:17:30.630Z,978.34
2019-05-26T01:18:30.685Z,978.35
2019-05-26T01:19:30.654Z,978.35
2019-05-26T01:20:30.662Z,978.33
2019-05-26T01:21:30.657Z,978.36
2019-05-26T01:22:30.648Z,978.36
2019-05-26T01:23:30.609Z,978.33
2019-05-26T01:24:30.684Z,978.35
2019-05-26T01:25:30.673Z,978.35
2019-05-26T01:26:30.642Z,978.27
2019-05-26T01:27:30.660Z,978.33
2019-05-26T01:28:30.658Z,978.36
2019-05-26T01:29:30.651Z,978.39
2019-05-26T01:30:30.683Z,978.34
2019-05-26T01:31:30.665Z,978.32
2019-05-26T01:32:30.633Z,978.37
2019-05-26T01:33:30.674Z,978.35
2019-05-26T01:34:30.663Z,978.41
2019-05-26T01:35:30.638Z,978.43
2019-05-26T01:36:30.689Z,978.34
2019-05-26T01:37:30.678Z,978.33
2019-05-26T01:38:30.634Z,978.42
2019-05-26T01:39:30.692Z,978.39
2019-05-26T01:40:30.671Z,978.39
2019-05-26T01:41:30.668Z,978.43
2019-05-26T01:42:30.713Z,978.48
2019-05-26T01:43:30.672Z,978.42
2019-05-26T01:44:30.644Z,978.39
2019-05-26T01:45:30.685Z,978.39
2019-05-26T01:46:30.667Z,978.51
2019-05-26T01:47:30.631Z,978.51
2019-05-26T01:48:30.705Z,978.47
2019-05-26T01:49:30.688Z,978.39
2019-05-26T01:50:30.645Z,978.39
2019-05-26T01:51:30.682Z,978.46
2019-05-26T01:52:30.680Z,978.41
2019-05-26T01:53:30.684Z,978.41
2019-05-26T01:54:30.712Z,978.43
2019-05-26T01:55:30.698Z,978.48
2019-05-26T01:56:30.650Z,978.39
2019-05-26T01:57:30.695Z,978.42
2019-05-26T01:58:30.676Z,978.49
2019-05-26T01:59:30.676Z,978.55
2019-05-26T02:00:30.717Z,978.52
2019-05-26T02:01:30.691Z,978.49
2019-05-26T02:02:30.668Z,978.53
2019-05-26T02:03:30.685Z,978.51
2019-05-26T02:04:30.820Z,978.53
2019-05-26T02:05:30.712Z,978.57
2019-05-26T02:06:30.722Z,978.58
2019-05-26T02:07:30.726Z,978.59
2019-05-26T02:08:38.700Z,978.54
2019-05-26T02:09:30.689Z,978.55
2019-05-26T02:10:30.713Z,978.53
2019-05-26T02:11:30.706Z,978.56
2019-05-26T02:12:30.713Z,978.51
2019-05-26T02:13:30.732Z,978.51
2019-05-26T02:14:30.665Z,978.56
2019-05-26T02:15:30.702Z,978.61
2019-05-26T02:16:30.709Z,978.59
2019-05-26T02:17:30.675Z,978.59
2019-05-26T02:18:30.734Z,978.54
2019-05-26T02:19:30.697Z,978.61
2019-05-26T02:20:30.662Z,978.54
2019-05-26T02:21:30.722Z,978.64
2019-05-26T02:22:30.696Z,978.63
2019-05-26T02:23:30.671Z,978.64
2019-05-26T02:24:30.729Z,978.72
2019-05-26T02:25:30.722Z,978.65
2019-05-26T02:26:30.693Z,978.70
2019-05-26T02:27:30.719Z,978.69
2019-05-26T02:28:30.708Z,978.62
2019-05-26T02:29:30.673Z,978.72
2019-05-26T02:30:30.785Z,978.67
2019-05-26T02:31:30.721Z,978.64
2019-05-26T02:32:30.680Z,978.67
2019-05-26T02:33:30.714Z,978.63
2019-05-26T02:34:30.736Z,978.67
2019-05-26T02:35:30.681Z,978.67
2019-05-26T02:36:30.741Z,978.66
2019-05-26T02:37:30.733Z,978.66
2019-05-26T02:38:30.697Z,978.66
2019-05-26T02:39:30.738Z,978.72
2019-05-26T02:40:30.723Z,978.73
2019-05-26T02:41:30.722Z,978.68
2019-05-26T02:42:30.758Z,978.73
2019-05-26T02:43:30.729Z,978.75
2019-05-26T02:44:30.697Z,978.73
2019-05-26T02:45:30.733Z,978.74
2019-05-26T02:46:30.725Z,978.71
2019-05-26T02:47:30.730Z,978.79
2019-05-26T02:48:30.748Z,978.81
2019-05-26T02:49:30.742Z,978.85
2019-05-26T02:50:30.726Z,978.82
2019-05-26T02:51:30.736Z,978.85
2019-05-26T02:52:30.724Z,978.89
2019-05-26T02:53:30.729Z,978.81
2019-05-26T02:54:30.748Z,978.91
2019-05-26T02:55:30.734Z,978.85
2019-05-26T02:56:30.715Z,978.85
2019-05-26T02:57:30.739Z,978.95
2019-05-26T02:58:30.740Z,978.87
2019-05-26T02:59:30.730Z,978.90
2019-05-26T03:00:30.765Z,978.90
2019-05-26T03:01:30.736Z,978.87
2019-05-26T03:02:30.703Z,978.78
2019-05-26T03:03:30.751Z,978.84
2019-05-26T03:04:30.802Z,978.77
2019-05-26T03:05:30.746Z,978.89
2019-05-26T03:06:30.768Z,978.77
2019-05-26T03:07:30.761Z,978.91
2019-05-26T03:08:30.761Z,978.85
2019-05-26T03:09:30.763Z,978.90
2019-05-26T03:10:30.729Z,978.92
2019-05-26T03:11:30.743Z,978.91
2019-05-26T03:12:30.799Z,978.82
2019-05-26T03:13:30.765Z,978.90
2019-05-26T03:14:30.751Z,978.88
2019-05-26T03:15:30.755Z,978.89
2019-05-26T03:16:30.763Z,978.90
2019-05-26T03:17:30.750Z,978.91
2019-05-26T03:18:30.776Z,978.89
2019-05-26T03:19:30.752Z,978.86
2019-05-26T03:20:30.756Z,978.81
2019-05-26T03:21:30.765Z,978.82
2019-05-26T03:22:30.744Z,978.86
2019-05-26T03:23:30.742Z,978.83
2019-05-26T03:24:30.773Z,978.88
2019-05-26T03:25:30.764Z,978.94
2019-05-26T03:26:30.768Z,978.89
2019-05-26T03:27:30.778Z,978.87
2019-05-26T03:28:30.751Z,978.89
2019-05-26T03:29:30.739Z,978.92
2019-05-26T03:30:30.794Z,978.94
2019-05-26T03:31:30.774Z,978.99
2019-05-26T03:32:30.766Z,978.95
2019-05-26T03:33:30.785Z,979.02
2019-05-26T03:34:30.773Z,978.91
2019-05-26T03:35:30.754Z,979.04
2019-05-26T03:36:30.773Z,979.04
2019-05-26T03:37:30.784Z,978.99
2019-05-26T03:38:30.757Z,978.94
2019-05-26T03:39:43.336Z,979.01
2019-05-26T03:40:30.771Z,978.97
2019-05-26T03:41:30.768Z,978.94
2019-05-26T03:42:30.801Z,978.97
2019-05-26T03:43:30.784Z,978.97
2019-05-26T03:44:30.739Z,979.02
2019-05-26T03:45:30.790Z,979.01
2019-05-26T03:46:30.781Z,979.03
2019-05-26T03:47:30.806Z,979.06
2019-05-26T03:48:30.808Z,979.06
2019-05-26T03:49:30.770Z,978.99
2019-05-26T03:50:30.744Z,979.05
2019-05-26T03:51:30.788Z,979.00
2019-05-26T03:52:30.790Z,979.02
2019-05-26T03:53:30.764Z,979.06
2019-05-26T03:54:30.808Z,979.06
2019-05-26T03:55:30.799Z,979.06
2019-05-26T03:56:30.766Z,979.13
2019-05-26T03:57:30.789Z,979.09
2019-05-26T03:58:30.781Z,979.05
2019-05-26T03:59:30.772Z,979.08
2019-05-26T04:00:30.809Z,979.16
2019-05-26T04:01:30.790Z,979.15
2019-05-26T04:02:30.754Z,979.15
2019-05-26T04:03:30.800Z,979.19
2019-05-26T04:04:30.810Z,979.16
2019-05-26T04:05:30.766Z,979.17
2019-05-26T04:06:30.809Z,979.20
2019-05-26T04:07:30.804Z,979.15
2019-05-26T04:08:30.763Z,979.10
2019-05-26T04:09:30.801Z,979.17
2019-05-26T04:10:30.765Z,979.19
2019-05-26T04:11:30.811Z,979.16
2019-05-26T04:12:30.825Z,979.20
2019-05-26T04:13:30.815Z,979.21
2019-05-26T04:14:30.807Z,979.22
2019-05-26T04:15:30.817Z,979.21
2019-05-26T04:16:30.796Z,979.15
2019-05-26T04:17:30.774Z,979.26
2019-05-26T04:18:30.834Z,979.26
2019-05-26T04:19:30.803Z,979.20
2019-05-26T04:20:30.798Z,979.31
2019-05-26T04:21:30.814Z,979.25
2019-05-26T04:22:30.805Z,979.24
2019-05-26T04:23:30.796Z,979.22
2019-05-26T04:24:30.838Z,979.20
2019-05-26T04:25:30.811Z,979.29
2019-05-26T04:26:30.862Z,979.27
2019-05-26T04:27:30.828Z,979.27
2019-05-26T04:28:30.800Z,979.24
2019-05-26T04:29:30.796Z,979.36
2019-05-26T04:30:30.835Z,979.24
2019-05-26T04:31:30.823Z,979.28
2019-05-26T04:32:30.786Z,979.34
2019-05-26T04:33:30.832Z,979.34
2019-05-26T04:34:30.797Z,979.26
2019-05-26T04:35:30.814Z,979.22
2019-05-26T04:36:30.842Z,979.26
2019-05-26T04:37:30.819Z,979.20
2019-05-26T04:38:30.822Z,979.20
2019-05-26T04:39:30.827Z,979.24
2019-05-26T04:40:30.807Z,979.23
2019-05-26T04:41:30.818Z,979.35
2019-05-26T04:42:30.846Z,979.27
2019-05-26T04:43:30.830Z,979.29
2019-05-26T04:44:30.780Z,979.29
2019-05-26T04:45:30.828Z,979.19
2019-05-26T04:46:30.821Z,979.22
2019-05-26T04:47:30.816Z,979.27
2019-05-26T04:48:30.846Z,979.24
2019-05-26T04:49:30.844Z,979.18
2019-05-26T04:50:30.824Z,979.24
2019-05-26T04:51:30.836Z,979.25
2019-05-26T04:52:30.819Z,979.23
2019-05-26T04:53:30.800Z,979.17
2019-05-26T04:54:30.853Z,979.19
2019-05-26T04:55:30.861Z,979.23
2019-05-26T04:56:30.821Z,979.17
2019-05-26T04:57:30.839Z,979.17
2019-05-26T04:58:30.822Z,979.19
2019-05-26T04:59:30.843Z,979.20
2019-05-26T05:00:30.855Z,979.24
2019-05-26T05:01:30.842Z,979.28
2019-05-26T05:02:30.820Z,979.22
2019-05-26T05:03:30.851Z,979.26
2019-05-26T05:04:30.825Z,979.27
2019-05-26T05:05:30.817Z,979.18
2019-05-26T05:06:30.865Z,979.23
2019-05-26T05:07:30.854Z,979.26
2019-05-26T05:08:30.832Z,979.18
2019-05-26T05:09:30.853Z,979.25
2019-05-26T05:10:41.956Z,979.33
2019-05-26T05:11:30.822Z,979.31
2019-05-26T05:12:30.859Z,979.23
2019-05-26T05:13:30.880Z,979.34
2019-05-26T05:14:30.832Z,979.24
2019-05-26T05:15:30.855Z,979.27
2019-05-26T05:16:30.848Z,979.28
2019-05-26T05:17:30.835Z,979.27
2019-05-26T05:18:30.865Z,979.30
2019-05-26T05:19:30.870Z,979.27
2019-05-26T05:20:30.845Z,979.28
2019-05-26T05:21:30.861Z,979.24
2019-05-26T05:22:30.856Z,979.31
2019-05-26T05:23:30.842Z,979.36
2019-05-26T05:24:30.893Z,979.31
2019-05-26T05:25:30.864Z,979.30
2019-05-26T05:26:30.863Z,979.37
2019-05-26T05:27:30.867Z,979.35
2019-05-26T05:28:30.846Z,979.36
2019-05-26T05:29:30.862Z,979.34
2019-05-26T05:30:30.877Z,979.30
2019-05-26T05:31:30.898Z,979.36
2019-05-26T05:32:32.888Z,979.35
2019-05-26T05:33:30.874Z,979.36
2019-05-26T05:34:30.855Z,979.40
2019-05-26T05:35:30.879Z,979.35
2019-05-26T05:36:30.871Z,979.36
2019-05-26T05:37:30.879Z,979.37
2019-05-26T05:38:30.856Z,979.32
2019-05-26T05:39:30.866Z,979.41
2019-05-26T05:40:30.857Z,979.34
2019-05-26T05:41:30.857Z,979.40
2019-05-26T05:42:30.907Z,979.39
2019-05-26T05:43:30.904Z,979.43
2019-05-26T05:44:30.856Z,979.46
2019-05-26T05:45:30.883Z,979.36
2019-05-26T05:46:30.886Z,979.38
2019-05-26T05:47:30.871Z,979.47
2019-05-26T05:48:30.920Z,979.43
2019-05-26T05:49:30.946Z,979.42
2019-05-26T05:50:30.874Z,979.45
2019-05-26T05:51:30.881Z,979.46
2019-05-26T05:52:30.876Z,979.43
2019-05-26T05:53:30.894Z,979.44
2019-05-26T05:54:30.897Z,979.40
2019-05-26T05:55:30.924Z,979.44
2019-05-26T05:56:30.869Z,979.41
2019-05-26T05:57:30.896Z,979.42
2019-05-26T05:58:30.865Z,979.43
2019-05-26T05:59:30.869Z,979.44
2019-05-26T06:00:30.916Z,979.37
2019-05-26T06:01:30.942Z,979.34
2019-05-26T06:02:30.900Z,979.31
2019-05-26T06:03:30.890Z,979.33
2019-05-26T06:04:30.875Z,979.38
2019-05-26T06:05:30.877Z,979.38
2019-05-26T06:06:30.936Z,979.39
2019-05-26T06:07:30.906Z,979.34
2019-05-26T06:08:30.889Z,979.47
2019-05-26T06:09:30.904Z,979.38
2019-05-26T06:10:30.891Z,979.43
2019-05-26T06:11:30.889Z,979.39
2019-05-26T06:12:30.923Z,979.39
2019-05-26T06:13:30.909Z,979.38
2019-05-26T06:14:30.900Z,979.39
2019-05-26T06:15:30.906Z,979.36
2019-05-26T06:16:30.886Z,979.44
2019-05-26T06:17:31.106Z,979.36
2019-05-26T06:18:30.921Z,979.39
2019-05-26T06:19:30.919Z,979.39
2019-05-26T06:20:30.898Z,979.39
2019-05-26T06:21:30.920Z,979.32
2019-05-26T06:22:30.896Z,979.48
2019-05-26T06:23:30.901Z,979.39
2019-05-26T06:24:30.936Z,979.44
2019-05-26T06:25:30.915Z,979.48
2019-05-26T06:26:30.905Z,979.47
2019-05-26T06:27:30.908Z,979.46
2019-05-26T06:28:30.905Z,979.45
2019-05-26T06:29:30.904Z,979.49
2019-05-26T06:30:30.947Z,979.40
2019-05-26T06:31:30.951Z,979.47
2019-05-26T06:32:30.933Z,979.49
2019-05-26T06:33:30.968Z,979.44
2019-05-26T06:34:30.987Z,979.47
2019-05-26T06:35:32.817Z,979.51
2019-05-26T06:36:31.032Z,979.43
2019-05-26T06:37:30.993Z,979.48
2019-05-26T06:38:31.078Z,979.48
2019-05-26T06:39:31.047Z,979.47
2019-05-26T06:40:31.036Z,979.47
2019-05-26T06:41:33.766Z,979.52
2019-05-26T06:42:31.072Z,979.38
2019-05-26T06:43:31.043Z,979.38
2019-05-26T06:44:31.042Z,979.42
2019-05-26T06:45:31.073Z,979.47
2019-05-26T06:46:31.071Z,979.43
2019-05-26T06:47:31.073Z,979.39
2019-05-26T06:48:31.096Z,979.39
2019-05-26T06:49:31.056Z,979.43
2019-05-26T06:50:31.073Z,979.46
2019-05-26T06:51:31.074Z,979.44
2019-05-26T06:52:31.064Z,979.44
2019-05-26T06:53:31.083Z,979.49
2019-05-26T06:54:31.104Z,979.50
2019-05-26T06:55:31.060Z,979.48
2019-05-26T06:56:31.071Z,979.46
2019-05-26T06:57:31.090Z,979.50
2019-05-26T06:58:31.058Z,979.52
2019-05-26T06:59:31.077Z,979.46
2019-05-26T07:00:31.099Z,979.47
2019-05-26T07:01:31.070Z,979.52
2019-05-26T07:02:31.062Z,979.37
2019-05-26T07:03:31.081Z,979.41
2019-05-26T07:04:31.078Z,979.42
2019-05-26T07:05:31.106Z,979.42
2019-05-26T07:06:31.109Z,979.52
2019-05-26T07:07:31.097Z,979.45
2019-05-26T07:08:31.080Z,979.47
2019-05-26T07:09:31.095Z,979.49
2019-05-26T07:10:31.075Z,979.52
2019-05-26T07:11:31.136Z,979.51
2019-05-26T07:12:31.114Z,979.51
2019-05-26T07:13:31.088Z,979.44
2019-05-26T07:14:31.096Z,979.53
2019-05-26T07:15:31.111Z,979.49
2019-05-26T07:16:38.120Z,979.45
2019-05-26T07:17:31.105Z,979.52
2019-05-26T07:18:31.093Z,979.47
2019-05-26T07:19:31.092Z,979.53
2019-05-26T07:20:31.076Z,979.44
2019-05-26T07:21:31.111Z,979.48
2019-05-26T07:22:31.125Z,979.51
2019-05-26T07:23:31.113Z,979.50
2019-05-26T07:24:31.138Z,979.60
2019-05-26T07:25:31.110Z,979.59
2019-05-26T07:26:31.074Z,979.53
2019-05-26T07:27:31.116Z,979.45
2019-05-26T07:28:31.096Z,979.49
2019-05-26T07:29:31.103Z,979.52
2019-05-26T07:30:31.130Z,979.45
2019-05-26T07:31:31.117Z,979.53
2019-05-26T07:32:31.109Z,979.60
2019-05-26T07:33:31.118Z,979.52
2019-05-26T07:34:31.111Z,979.66
2019-05-26T07:35:33.022Z,979.59
2019-05-26T07:36:31.147Z,979.60
2019-05-26T07:37:31.104Z,979.63
2019-05-26T07:38:31.116Z,979.61
2019-05-26T07:39:31.132Z,979.60
2019-05-26T07:40:31.126Z,979.64
2019-05-26T07:41:31.106Z,979.64
2019-05-26T07:42:31.161Z,979.67
2019-05-26T07:43:31.116Z,979.71
2019-05-26T07:44:31.143Z,979.64
2019-05-26T07:45:31.129Z,979.65
2019-05-26T07:46:31.115Z,979.56
2019-05-26T07:47:31.118Z,979.59
2019-05-26T07:48:34.877Z,979.58
2019-05-26T07:49:31.116Z,979.55
2019-05-26T07:50:31.122Z,979.61
2019-05-26T07:51:31.135Z,979.57
2019-05-26T07:52:31.130Z,979.63
2019-05-26T07:53:31.127Z,979.58
2019-05-26T07:54:31.147Z,979.61
2019-05-26T07:55:31.126Z,979.63
2019-05-26T07:56:31.145Z,979.63
2019-05-26T07:57:31.145Z,979.59
2019-05-26T07:58:31.107Z,979.63
2019-05-26T07:59:31.161Z,979.61
2019-05-26T08:00:31.163Z,979.54
2019-05-26T08:01:36.076Z,979.64
2019-05-26T08:02:31.148Z,979.58
2019-05-26T08:03:31.153Z,979.62
2019-05-26T08:04:31.147Z,979.63
2019-05-26T08:05:31.148Z,979.59
2019-05-26T08:06:31.183Z,979.61
2019-05-26T08:07:31.150Z,979.56
2019-05-26T08:08:31.145Z,979.57
2019-05-26T08:09:31.148Z,979.68
2019-05-26T08:10:31.137Z,979.65
2019-05-26T08:11:31.136Z,979.58
2019-05-26T08:12:31.189Z,979.65
2019-05-26T08:13:31.147Z,979.60
2019-05-26T08:14:31.150Z,979.57
2019-05-26T08:15:31.168Z,979.51
2019-05-26T08:16:31.554Z,979.53
2019-05-26T08:17:31.172Z,979.57
2019-05-26T08:18:31.191Z,979.57
2019-05-26T08:19:31.318Z,979.60
2019-05-26T08:20:31.158Z,979.52
2019-05-26T08:21:31.165Z,979.53
2019-05-26T08:22:31.145Z,979.54
2019-05-26T08:23:31.159Z,979.55
2019-05-26T08:24:31.189Z,979.55
2019-05-26T08:25:31.154Z,979.57
2019-05-26T08:26:31.170Z,979.55
2019-05-26T08:27:31.170Z,979.56
2019-05-26T08:28:31.155Z,979.62
2019-05-26T08:29:31.169Z,979.56
2019-05-26T08:30:31.195Z,979.51
2019-05-26T08:31:31.157Z,979.57
2019-05-26T08:32:31.162Z,979.56
2019-05-26T08:33:31.171Z,979.51
2019-05-26T08:34:31.156Z,979.45
2019-05-26T08:35:31.186Z,979.61
2019-05-26T08:36:31.189Z,979.53
2019-05-26T08:37:31.159Z,979.44
2019-05-26T08:38:31.187Z,979.48
2019-05-26T08:39:31.176Z,979.52
2019-05-26T08:40:31.163Z,979.54
2019-05-26T08:41:31.190Z,979.49
2019-05-26T08:42:43.807Z,979.55
2019-05-26T08:43:31.224Z,979.56
2019-05-26T08:44:31.203Z,979.43
2019-05-26T08:45:31.196Z,979.51
2019-05-26T08:46:31.185Z,979.53
2019-05-26T08:47:31.190Z,979.50
2019-05-26T08:48:31.211Z,979.43
2019-05-26T08:49:31.178Z,979.52
2019-05-26T08:50:34.262Z,979.47
2019-05-26T08:51:31.213Z,979.54
2019-05-26T08:52:31.185Z,979.51
2019-05-26T08:53:31.167Z,979.52
2019-05-26T08:54:31.232Z,979.56
2019-05-26T08:55:31.189Z,979.54
2019-05-26T08:56:31.175Z,979.49
2019-05-26T08:57:31.212Z,979.49
2019-05-26T08:58:31.184Z,979.50
2019-05-26T08:59:31.181Z,979.46
2019-05-26T09:00:31.232Z,979.51
2019-05-26T09:01:31.180Z,979.40
2019-05-26T09:02:31.195Z,979.47
2019-05-26T09:03:31.205Z,979.55
2019-05-26T09:04:31.194Z,979.52
2019-05-26T09:05:31.227Z,979.49
2019-05-26T09:06:31.245Z,979.50
2019-05-26T09:07:31.201Z,979.50
2019-05-26T09:08:31.211Z,979.47
2019-05-26T09:09:31.246Z,979.42
2019-05-26T09:10:31.201Z,979.42
2019-05-26T09:11:31.217Z,979.50
2019-05-26T09:12:31.233Z,979.45
2019-05-26T09:13:31.198Z,979.44
2019-05-26T09:14:31.196Z,979.42
2019-05-26T09:15:31.208Z,979.44
2019-05-26T09:16:31.198Z,979.53
2019-05-26T09:17:31.202Z,979.46
2019-05-26T09:18:31.229Z,979.47
2019-05-26T09:19:31.222Z,979.39
2019-05-26T09:20:31.226Z,979.39
2019-05-26T09:21:31.225Z,979.41
2019-05-26T09:22:31.228Z,979.37
2019-05-26T09:23:31.212Z,979.37
2019-05-26T09:24:31.249Z,979.38
2019-05-26T09:25:31.222Z,979.41
2019-05-26T09:26:31.226Z,979.37
2019-05-26T09:27:31.234Z,979.39
2019-05-26T09:28:31.224Z,979.33
2019-05-26T09:29:31.256Z,979.34
2019-05-26T09:30:31.264Z,979.40
2019-05-26T09:31:34.102Z,979.44
2019-05-26T09:32:31.234Z,979.34
2019-05-26T09:33:31.241Z,979.38
2019-05-26T09:34:31.246Z,979.29
2019-05-26T09:35:31.246Z,979.34
2019-05-26T09:36:31.260Z,979.27
2019-05-26T09:37:31.236Z,979.27
2019-05-26T09:38:31.241Z,979.32
2019-05-26T09:39:31.264Z,979.35
2019-05-26T09:40:31.244Z,979.33
2019-05-26T09:41:31.265Z,979.34
2019-05-26T09:42:31.259Z,979.29
2019-05-26T09:43:31.228Z,979.34
2019-05-26T09:44:31.229Z,979.38
2019-05-26T09:45:31.252Z,979.32
2019-05-26T09:46:31.253Z,979.32
2019-05-26T09:47:31.260Z,979.41
2019-05-26T09:48:31.260Z,979.33
2019-05-26T09:49:31.236Z,979.31
2019-05-26T09:50:31.255Z,979.24
2019-05-26T09:51:31.261Z,979.35
2019-05-26T09:52:31.295Z,979.31
2019-05-26T09:53:31.255Z,979.26
2019-05-26T09:54:31.274Z,979.24
2019-05-26T09:55:31.245Z,979.34
2019-05-26T09:56:31.263Z,979.32
2019-05-26T09:57:31.287Z,979.34
2019-05-26T09:58:31.252Z,979.26
2019-05-26T09:59:31.257Z,979.28
2019-05-26T10:00:31.256Z,979.24
2019-05-26T10:01:31.264Z,979.21
2019-05-26T10:02:31.277Z,979.17
2019-05-26T10:03:31.299Z,979.19
2019-05-26T10:04:31.263Z,979.11
2019-05-26T10:05:31.275Z,979.16
2019-05-26T10:06:31.298Z,979.17
2019-05-26T10:07:31.259Z,979.17
2019-05-26T10:08:31.281Z,979.27
2019-05-26T10:09:31.301Z,979.19
2019-05-26T10:10:31.276Z,979.15
2019-05-26T10:11:31.274Z,979.16
2019-05-26T10:12:31.290Z,979.22
2019-05-26T10:13:32.159Z,979.16
2019-05-26T10:14:31.295Z,979.16
2019-05-26T10:15:31.321Z,979.19
2019-05-26T10:16:31.276Z,979.20
2019-05-26T10:17:31.265Z,979.16
2019-05-26T10:18:31.289Z,979.16
2019-05-26T10:19:31.274Z,979.22
2019-05-26T10:20:31.302Z,979.23
2019-05-26T10:21:31.320Z,979.28
2019-05-26T10:22:31.281Z,979.14
2019-05-26T10:23:31.282Z,979.10
2019-05-26T10:24:31.299Z,979.08
2019-05-26T10:25:31.284Z,979.01
2019-05-26T10:26:31.293Z,979.06
2019-05-26T10:27:31.306Z,979.03
2019-05-26T10:28:31.289Z,979.05
2019-05-26T10:29:31.286Z,979.10
2019-05-26T10:30:31.303Z,979.07
2019-05-26T10:31:31.303Z,979.01
2019-05-26T10:32:31.295Z,978.96
2019-05-26T10:33:31.326Z,979.10
2019-05-26T10:34:31.290Z,979.07
2019-05-26T10:35:31.304Z,979.13
2019-05-26T10:36:31.314Z,979.07
2019-05-26T10:37:31.316Z,979.16
2019-05-26T10:38:31.336Z,979.03
2019-05-26T10:39:31.331Z,979.10
2019-05-26T10:40:31.290Z,979.10
2019-05-26T10:41:31.305Z,979.14
2019-05-26T10:42:31.318Z,979.04
2019-05-26T10:43:44.532Z,979.07
2019-05-26T10:44:31.342Z,979.08
2019-05-26T10:45:34.295Z,979.02
2019-05-26T10:46:31.302Z,979.11
2019-05-26T10:47:31.311Z,978.89
2019-05-26T10:48:31.334Z,979.02
2019-05-26T10:49:31.331Z,978.92
2019-05-26T10:50:31.312Z,979.03
2019-05-26T10:51:31.351Z,978.98
2019-05-26T10:52:31.315Z,978.93
2019-05-26T10:53:31.313Z,978.88
2019-05-26T10:54:31.337Z,978.94
2019-05-26T10:55:31.322Z,978.91
2019-05-26T10:56:31.338Z,978.95
2019-05-26T10:57:31.362Z,978.87
2019-05-26T10:58:31.327Z,978.87
2019-05-26T10:59:31.401Z,978.87
2019-05-26T11:00:33.090Z,978.85
2019-05-26T11:01:31.337Z,978.75
2019-05-26T11:02:31.352Z,978.84
2019-05-26T11:03:31.360Z,978.69
2019-05-26T11:04:31.325Z,978.84
2019-05-26T11:05:31.334Z,978.83
2019-05-26T11:06:31.341Z,978.66
2019-05-26T11:07:31.327Z,978.65
2019-05-26T11:08:31.355Z,978.73
2019-05-26T11:09:31.364Z,978.65
2019-05-26T11:10:31.331Z,978.74
2019-05-26T11:11:31.341Z,978.67
2019-05-26T11:12:31.356Z,978.69
2019-05-26T11:13:31.331Z,978.68
2019-05-26T11:14:31.360Z,978.70
2019-05-26T11:15:31.369Z,978.62
2019-05-26T11:16:31.352Z,978.69
2019-05-26T11:17:31.346Z,978.78
2019-05-26T11:18:31.364Z,978.68
2019-05-26T11:19:31.349Z,978.66
2019-05-26T11:20:31.391Z,978.71
2019-05-26T11:21:31.393Z,978.73
2019-05-26T11:22:31.350Z,978.76
2019-05-26T11:23:31.384Z,978.73
2019-05-26T11:24:31.366Z,978.76
2019-05-26T11:25:31.348Z,978.71
2019-05-26T11:26:31.371Z,978.66
2019-05-26T11:27:31.380Z,978.66
2019-05-26T11:28:31.372Z,978.69
2019-05-26T11:29:31.338Z,978.66
2019-05-26T11:30:31.381Z,978.69
2019-05-26T11:31:31.378Z,978.64
2019-05-26T11:32:31.381Z,978.59
2019-05-26T11:33:31.408Z,978.59
2019-05-26T11:34:31.380Z,978.57
2019-05-26T11:35:31.375Z,978.62
2019-05-26T11:36:31.394Z,978.50
2019-05-26T11:37:31.363Z,978.60
2019-05-26T11:38:33.732Z,978.47
2019-05-26T11:39:31.439Z,978.49
2019-05-26T11:40:31.408Z,978.42
2019-05-26T11:41:31.411Z,978.37
2019-05-26T11:42:31.439Z,978.36
2019-05-26T11:43:31.444Z,978.42
2019-05-26T11:44:31.495Z,978.37
2019-05-26T11:45:31.494Z,978.37
2019-05-26T11:46:31.494Z,978.37
2019-05-26T11:47:31.493Z,978.32
2019-05-26T11:48:31.499Z,978.38
2019-05-26T11:49:31.526Z,978.34
2019-05-26T11:50:31.552Z,978.29
2019-05-26T11:51:31.575Z,978.30
2019-05-26T11:52:31.557Z,978.31
2019-05-26T11:53:31.566Z,978.21
2019-05-26T11:54:34.447Z,978.30
2019-05-26T11:55:31.572Z,978.23
2019-05-26T11:56:31.596Z,978.23
2019-05-26T11:57:31.626Z,978.19
2019-05-26T11:58:31.577Z,978.22
2019-05-26T11:59:31.590Z,978.15
2019-05-26T12:00:31.600Z,978.22
2019-05-26T12:01:31.591Z,978.13
2019-05-26T12:02:31.584Z,978.15
2019-05-26T12:03:31.630Z,978.14
2019-05-26T12:04:31.568Z,978.16
2019-05-26T12:05:31.604Z,978.13
2019-05-26T12:06:31.604Z,978.22
2019-05-26T12:07:31.578Z,978.19
2019-05-26T12:08:31.612Z,978.04
2019-05-26T12:09:31.641Z,978.12
2019-05-26T12:10:31.607Z,978.13
2019-05-26T12:11:31.594Z,978.00
2019-05-26T12:12:31.610Z,978.04
2019-05-26T12:13:31.612Z,977.97
2019-05-26T12:14:35.299Z,977.99
2019-05-26T12:15:31.640Z,978.01
2019-05-26T12:16:31.586Z,978.13
2019-05-26T12:17:31.609Z,978.01
2019-05-26T12:18:31.612Z,978.01
2019-05-26T12:19:31.609Z,978.08
2019-05-26T12:20:31.632Z,978.10
2019-05-26T12:21:31.649Z,978.07
2019-05-26T12:22:31.606Z,978.07
2019-05-26T12:23:32.062Z,978.14
2019-05-26T12:24:31.623Z,978.13
2019-05-26T12:25:31.612Z,978.00
2019-05-26T12:26:31.609Z,978.01
2019-05-26T12:27:31.646Z,978.05
2019-05-26T12:28:31.608Z,978.04